createdAt,value
2023-12-09T00:00:41.481Z,74.06
2023-12-09T00:03:12.783Z,74.20
2023-12-09T00:05:43.652Z,73.73
2023-12-09T00:08:13.954Z,74.09
2023-12-09T00:10:47.465Z,74.31
2023-12-09T00:13:26.492Z,74.29
2023-12-09T00:15:57.362Z,74.66
2023-12-09T00:18:28.143Z,74.21
2023-12-09T00:21:04.541Z,75.08
2023-12-09T00:23:35.555Z,74.98
2023-12-09T00:26:24.147Z,74.83
2023-12-09T00:28:57.009Z,75.16
2023-12-09T00:31:32.561Z,75.10
2023-12-09T00:34:03.041Z,75.05
2023-12-09T00:36:38.846Z,75.14
2023-12-09T00:39:09.669Z,75.12
2023-12-09T00:41:40.435Z,74.95
2023-12-09T00:44:18.599Z,75.45
2023-12-09T00:46:49.546Z,75.63
2023-12-09T00:49:27.579Z,76.13
2023-12-09T00:52:04.380Z,76.11
2023-12-09T00:54:35.392Z,76.01
2023-12-09T00:57:06.057Z,76.42
2023-12-09T00:59:39.337Z,76.54
2023-12-09T01:02:10.077Z,76.80
2023-12-09T01:04:41.461Z,76.84
2023-12-09T01:07:15.871Z,76.30
2023-12-09T01:09:46.753Z,76.93
2023-12-09T01:12:17.254Z,77.08
2023-12-09T01:14:56.879Z,77.08
2023-12-09T01:17:28.346Z,76.64
2023-12-09T01:20:04.618Z,77.00
2023-12-09T01:25:28.387Z,76.39
2023-12-09T01:27:59.256Z,76.40
2023-12-09T01:30:35.350Z,76.71
2023-12-09T01:33:06.362Z,76.66
2023-12-09T01:35:37.289Z,77.10
2023-12-09T01:38:15.131Z,76.35
2023-12-09T01:40:47.278Z,76.50
2023-12-09T01:43:18.423Z,76.87
2023-12-09T01:45:56.738Z,76.54
2023-12-09T01:48:27.102Z,76.52
2023-12-09T01:51:03.276Z,76.40
2023-12-09T01:53:34.730Z,76.63
2023-12-09T01:56:20.454Z,76.33
2023-12-09T01:58:53.913Z,76.71
2023-12-09T02:01:45.499Z,76.28
2023-12-09T02:04:18.430Z,76.40
2023-12-09T02:06:49.092Z,76.64
2023-12-09T02:09:22.952Z,76.66
2023-12-09T02:12:03.944Z,76.83
2023-12-09T02:14:41.172Z,76.64
2023-12-09T02:17:28.808Z,76.56
2023-12-09T02:20:04.456Z,76.26
2023-12-09T02:22:40.962Z,76.30
2023-12-09T02:25:15.211Z,76.50
2023-12-09T02:27:54.952Z,76.31
2023-12-09T02:30:32.352Z,76.88
2023-12-09T02:33:06.885Z,76.21
2023-12-09T02:35:43.955Z,76.61
2023-12-09T02:38:16.034Z,76.12
2023-12-09T02:40:53.782Z,76.22
2023-12-09T02:43:24.226Z,76.28
2023-12-09T02:46:03.369Z,76.76
2023-12-09T02:48:34.651Z,76.53
2023-12-09T02:51:07.915Z,77.07
2023-12-09T02:53:45.591Z,77.02
2023-12-09T02:56:22.674Z,76.89
2023-12-09T02:58:56.135Z,76.67
2023-12-09T03:01:26.399Z,76.88
2023-12-09T03:04:01.494Z,76.27
2023-12-09T03:06:35.054Z,76.54
2023-12-09T03:09:06.168Z,77.15
2023-12-09T03:11:44.270Z,77.22
2023-12-09T03:14:15.423Z,76.97
2023-12-09T03:16:59.889Z,77.34
2023-12-09T03:19:30.773Z,77.33
2023-12-09T03:22:04.434Z,77.40
2023-12-09T03:24:35.505Z,77.35
2023-12-09T03:27:16.149Z,77.09
2023-12-09T03:29:52.124Z,77.13
2023-12-09T03:32:22.696Z,77.48
2023-12-09T03:34:53.104Z,77.35
2023-12-09T03:37:23.917Z,77.09
2023-12-09T03:39:59.498Z,76.69
2023-12-09T03:42:35.849Z,76.70
2023-12-09T03:45:06.573Z,76.29
2023-12-09T03:47:37.504Z,76.58
2023-12-09T03:50:08.383Z,76.63
2023-12-09T03:52:42.917Z,76.40
2023-12-09T03:55:18.677Z,76.43
2023-12-09T03:57:55.130Z,76.73
2023-12-09T04:00:27.088Z,76.57
2023-12-09T04:03:00.899Z,76.94
2023-12-09T04:05:31.202Z,76.62
2023-12-09T04:08:10.960Z,76.58
2023-12-09T04:10:41.730Z,76.74
2023-12-09T04:13:20.580Z,76.39
2023-12-09T04:15:51.880Z,76.28
2023-12-09T04:18:23.137Z,76.21
2023-12-09T04:20:58.879Z,75.88
2023-12-09T04:23:29.430Z,75.86
2023-12-09T04:26:03.220Z,75.88
2023-12-09T04:28:36.700Z,75.98
2023-12-09T04:31:09.402Z,76.28
2023-12-09T04:33:45.593Z,76.02
2023-12-09T04:36:17.826Z,76.02
2023-12-09T04:38:49.172Z,75.63
2023-12-09T04:41:20.975Z,76.08
2023-12-09T04:43:54.962Z,75.52
2023-12-09T04:46:25.322Z,75.46
2023-12-09T04:48:58.102Z,75.65
2023-12-09T04:51:30.154Z,75.42
2023-12-09T04:54:01.083Z,75.56
2023-12-09T04:56:32.194Z,75.76
2023-12-09T04:59:12.758Z,75.56
2023-12-09T05:01:43.901Z,76.03
2023-12-09T05:04:15.782Z,76.10
2023-12-09T05:06:50.232Z,75.83
2023-12-09T05:09:26.117Z,75.63
2023-12-09T05:11:57.451Z,75.76
2023-12-09T05:14:33.433Z,76.08
2023-12-09T05:17:11.311Z,75.86
2023-12-09T05:19:44.646Z,76.50
2023-12-09T05:22:16.833Z,76.50
2023-12-09T05:24:54.024Z,76.48
2023-12-09T05:27:34.392Z,76.85
2023-12-09T05:30:08.914Z,76.59
2023-12-09T05:32:40.916Z,77.25
2023-12-09T05:35:12.050Z,76.94
2023-12-09T05:37:45.712Z,77.16
2023-12-09T05:40:17.070Z,77.30
2023-12-09T05:42:47.903Z,77.11
2023-12-09T05:45:21.189Z,77.85
2023-12-09T05:48:07.390Z,77.47
2023-12-09T05:50:39.206Z,77.51
2023-12-09T05:53:10.545Z,77.30
2023-12-09T05:55:46.465Z,77.05
2023-12-09T05:58:22.314Z,77.49
2023-12-09T06:00:58.147Z,77.63
2023-12-09T06:03:29.119Z,77.25
2023-12-09T06:05:59.835Z,77.30
2023-12-09T06:08:36.058Z,77.04
2023-12-09T06:11:14.684Z,76.90
2023-12-09T06:13:55.336Z,76.98
2023-12-09T06:16:28.509Z,77.18
2023-12-09T06:18:59.518Z,76.85
2023-12-09T06:21:34.743Z,77.14
2023-12-09T06:24:05.518Z,76.67
2023-12-09T06:26:37.156Z,77.11
2023-12-09T06:29:17.063Z,76.96
2023-12-09T06:31:52.220Z,77.09
2023-12-09T06:34:31.192Z,76.75
2023-12-09T06:37:09.346Z,76.95
2023-12-09T06:39:40.227Z,76.91
2023-12-09T06:42:11.478Z,77.03
2023-12-09T06:44:44.036Z,76.69
2023-12-09T06:47:21.109Z,76.48
2023-12-09T06:49:54.613Z,76.53
2023-12-09T06:52:30.577Z,76.52
2023-12-09T06:55:04.466Z,76.61
2023-12-09T06:57:35.929Z,76.44
2023-12-09T07:00:11.094Z,76.89
2023-12-09T07:02:56.502Z,76.42
2023-12-09T07:05:30.478Z,76.23
2023-12-09T07:08:04.624Z,76.35
2023-12-09T07:10:37.810Z,76.39
2023-12-09T07:13:09.412Z,76.18
2023-12-09T07:15:45.631Z,76.36
2023-12-09T07:18:21.125Z,75.82
2023-12-09T07:21:01.870Z,75.90
2023-12-09T07:23:35.670Z,76.18
2023-12-09T07:26:12.102Z,76.04
2023-12-09T07:28:42.838Z,76.06
2023-12-09T07:31:13.622Z,76.38
2023-12-09T07:33:47.287Z,76.07
2023-12-09T07:36:18.834Z,75.69
2023-12-09T07:38:49.929Z,76.11
2023-12-09T07:41:23.799Z,75.76
2023-12-09T07:44:00.263Z,75.99
2023-12-09T07:46:34.162Z,77.03
2023-12-09T07:49:10.771Z,75.97
2023-12-09T07:51:41.656Z,75.84
2023-12-09T07:54:15.375Z,76.04
2023-12-09T07:56:48.209Z,75.71
2023-12-09T07:59:20.990Z,75.79
2023-12-09T08:01:52.137Z,75.56
2023-12-09T08:04:26.117Z,75.87
2023-12-09T08:06:59.985Z,75.38
2023-12-09T08:09:31.831Z,75.10
2023-12-09T08:12:09.100Z,75.04
2023-12-09T08:14:42.346Z,74.52
2023-12-09T08:17:18.718Z,74.92
2023-12-09T08:19:51.732Z,74.21
2023-12-09T08:22:24.023Z,74.10
2023-12-09T08:24:58.120Z,73.98
2023-12-09T08:27:29.155Z,74.23
2023-12-09T08:30:02.216Z,74.26
2023-12-09T08:32:43.169Z,74.63
2023-12-09T08:35:16.871Z,74.04
2023-12-09T08:37:52.482Z,73.22
2023-12-09T08:40:32.473Z,73.31
2023-12-09T08:43:03.502Z,73.37
2023-12-09T08:45:35.811Z,73.42
2023-12-09T08:48:08.774Z,73.01
2023-12-09T08:50:42.155Z,73.42
2023-12-09T08:53:15.655Z,72.84
2023-12-09T08:55:46.366Z,72.77
2023-12-09T08:58:18.393Z,72.41
2023-12-09T09:00:54.138Z,71.95
2023-12-09T09:03:24.791Z,71.80
2023-12-09T09:06:02.793Z,71.68
2023-12-09T09:08:36.050Z,71.92
2023-12-09T09:11:14.993Z,72.28
2023-12-09T09:13:45.833Z,71.95
2023-12-09T09:16:20.294Z,72.28
2023-12-09T09:18:51.800Z,71.77
2023-12-09T09:21:31.880Z,71.66
2023-12-09T09:24:03.775Z,71.76
2023-12-09T09:26:39.706Z,71.68
2023-12-09T09:29:11.845Z,71.50
2023-12-09T09:31:46.741Z,71.71
2023-12-09T09:34:23.746Z,71.27
2023-12-09T09:37:04.197Z,71.23
2023-12-09T09:39:36.564Z,70.88
2023-12-09T09:42:20.497Z,70.64
2023-12-09T09:45:09.900Z,70.37
2023-12-09T09:47:44.717Z,70.77
2023-12-09T09:50:17.295Z,70.47
2023-12-09T09:52:52.045Z,70.35
2023-12-09T09:55:23.964Z,70.12
2023-12-09T09:57:57.897Z,69.49
2023-12-09T10:00:32.857Z,69.49
2023-12-09T10:03:04.934Z,69.53
2023-12-09T10:05:36.476Z,68.62
2023-12-09T10:08:13.000Z,68.63
2023-12-09T10:10:44.132Z,68.06
2023-12-09T10:13:21.671Z,67.66
2023-12-09T10:15:52.090Z,68.08
2023-12-09T10:18:27.286Z,67.05
2023-12-09T10:20:59.325Z,66.58
2023-12-09T10:23:36.913Z,66.86
2023-12-09T10:26:08.371Z,66.10
2023-12-09T10:28:45.049Z,65.88
2023-12-09T10:31:21.160Z,65.71
2023-12-09T10:33:55.800Z,65.00
2023-12-09T10:36:27.185Z,66.01
2023-12-09T10:39:01.447Z,65.69
2023-12-09T10:41:32.191Z,65.74
2023-12-09T10:44:07.007Z,65.68
2023-12-09T10:46:40.019Z,64.87
2023-12-09T10:49:24.304Z,64.89
2023-12-09T10:52:00.676Z,63.98
2023-12-09T10:54:36.159Z,63.40
2023-12-09T10:57:10.569Z,62.75
2023-12-09T10:59:45.109Z,62.59
2023-12-09T11:02:19.568Z,61.37
2023-12-09T11:04:50.808Z,61.88
2023-12-09T11:07:21.465Z,61.54
2023-12-09T11:09:58.462Z,62.68
2023-12-09T11:12:33.985Z,62.70
2023-12-09T11:15:11.448Z,62.09
2023-12-09T11:17:43.013Z,61.96
2023-12-09T11:20:20.882Z,61.99
2023-12-09T11:23:00.999Z,61.35
2023-12-09T11:25:37.119Z,60.55
2023-12-09T11:28:10.698Z,61.13
2023-12-09T11:30:45.538Z,61.72
2023-12-09T11:33:21.043Z,61.47
2023-12-09T11:35:53.004Z,60.89
2023-12-09T11:38:26.152Z,60.98
2023-12-09T11:40:59.754Z,61.58
2023-12-09T11:43:30.205Z,62.08
2023-12-09T11:46:03.462Z,62.44
2023-12-09T11:48:34.990Z,61.10
2023-12-09T11:51:11.282Z,61.12
2023-12-09T11:53:56.060Z,60.74
2023-12-09T11:56:30.605Z,60.60
2023-12-09T11:59:02.029Z,61.34
2023-12-09T12:01:37.991Z,61.12
2023-12-09T12:04:12.652Z,60.84
2023-12-09T12:06:44.953Z,61.01
2023-12-09T12:09:16.011Z,61.05
2023-12-09T12:11:53.392Z,60.48
2023-12-09T12:14:24.435Z,60.66
2023-12-09T12:16:58.202Z,60.51
2023-12-09T12:19:29.873Z,61.22
2023-12-09T12:22:04.921Z,61.37
2023-12-09T12:24:47.150Z,62.25
2023-12-09T12:27:25.846Z,61.69
2023-12-09T12:30:00.980Z,61.57
2023-12-09T12:32:39.717Z,62.27
2023-12-09T12:35:19.596Z,62.53
2023-12-09T12:37:52.173Z,62.78
2023-12-09T12:40:33.249Z,62.99
2023-12-09T12:43:08.942Z,62.68
2023-12-09T12:45:42.217Z,63.32
2023-12-09T12:48:15.733Z,63.21
2023-12-09T12:50:49.594Z,63.88
2023-12-09T12:53:24.521Z,63.90
2023-12-09T12:56:01.251Z,63.33
2023-12-09T12:58:37.076Z,63.67
2023-12-09T13:01:11.245Z,63.27
2023-12-09T13:03:51.370Z,63.30
2023-12-09T13:06:22.458Z,63.24
2023-12-09T13:08:53.585Z,63.41
2023-12-09T13:11:26.750Z,62.67
2023-12-09T13:14:00.009Z,62.38
2023-12-09T13:16:33.148Z,62.07
2023-12-09T13:19:03.937Z,62.43
2023-12-09T13:21:43.362Z,62.72
2023-12-09T13:24:15.625Z,62.71
2023-12-09T13:26:56.195Z,62.96
2023-12-09T13:29:29.488Z,63.00
2023-12-09T13:32:03.363Z,63.46
2023-12-09T13:34:40.118Z,63.42
2023-12-09T13:37:14.729Z,63.51
2023-12-09T13:39:48.224Z,63.63
2023-12-09T13:42:19.228Z,63.83
2023-12-09T13:44:53.136Z,63.91
2023-12-09T13:47:24.121Z,63.69
2023-12-09T13:49:55.328Z,64.03
2023-12-09T13:52:28.291Z,64.06
2023-12-09T13:55:03.342Z,63.52
2023-12-09T13:57:33.845Z,63.71
2023-12-09T14:00:14.707Z,63.80
2023-12-09T14:02:46.895Z,63.33
2023-12-09T14:05:19.968Z,63.54
2023-12-09T14:08:01.173Z,64.19
2023-12-09T14:10:34.350Z,63.69
2023-12-09T14:13:05.549Z,63.85
2023-12-09T14:15:39.179Z,64.39
2023-12-09T14:18:15.485Z,64.75
2023-12-09T14:20:51.014Z,64.62
2023-12-09T14:23:21.959Z,64.31
2023-12-09T14:25:53.332Z,64.21
2023-12-09T14:28:26.988Z,64.41
2023-12-09T14:31:07.530Z,64.04
2023-12-09T14:33:43.027Z,64.42
2023-12-09T14:36:20.081Z,64.55
2023-12-09T14:38:57.743Z,65.00
2023-12-09T14:41:28.616Z,65.19
2023-12-09T14:44:08.646Z,65.39
2023-12-09T14:46:45.375Z,65.06
2023-12-09T14:49:16.750Z,65.46
2023-12-09T14:51:53.125Z,65.54
2023-12-09T14:54:27.410Z,65.82
2023-12-09T14:57:02.395Z,65.92
2023-12-09T14:59:32.789Z,65.74
2023-12-09T15:02:07.573Z,66.19
2023-12-09T15:04:40.600Z,66.30
2023-12-09T15:07:14.853Z,66.03
2023-12-09T15:09:48.692Z,66.35
2023-12-09T15:12:29.413Z,66.64
2023-12-09T15:15:02.402Z,66.35
2023-12-09T15:17:48.061Z,66.35
2023-12-09T15:20:23.028Z,66.85
2023-12-09T15:23:00.990Z,66.73
2023-12-09T15:25:34.703Z,67.13
2023-12-09T15:28:05.177Z,67.17
2023-12-09T15:30:38.038Z,66.84
2023-12-09T15:33:11.648Z,67.09
2023-12-09T15:35:44.919Z,66.99
2023-12-09T15:38:18.990Z,67.09
2023-12-09T15:40:50.304Z,67.30
2023-12-09T15:43:21.188Z,67.66
2023-12-09T15:45:53.761Z,67.84
2023-12-09T15:48:30.452Z,68.02
2023-12-09T15:51:06.486Z,67.76
2023-12-09T15:53:43.131Z,67.97
2023-12-09T15:56:17.421Z,68.68
2023-12-09T15:58:59.127Z,68.47
2023-12-09T16:01:33.388Z,68.40
2023-12-09T16:04:23.083Z,68.75
2023-12-09T16:07:09.074Z,68.52
2023-12-09T16:09:44.681Z,68.39
2023-12-09T16:12:24.566Z,68.82
2023-12-09T16:14:55.557Z,68.88
2023-12-09T16:17:29.191Z,68.93
2023-12-09T16:20:09.606Z,69.22
2023-12-09T16:22:46.204Z,69.10
2023-12-09T16:25:17.006Z,68.98
2023-12-09T16:27:49.673Z,69.41
2023-12-09T16:30:22.943Z,69.25
2023-12-09T16:33:03.408Z,69.13
2023-12-09T16:35:37.054Z,69.50
2023-12-09T16:38:10.062Z,69.21
2023-12-09T16:40:41.575Z,69.03
2023-12-09T16:43:12.498Z,69.33
2023-12-09T16:45:44.692Z,69.09
2023-12-09T16:48:15.670Z,69.28
2023-12-09T16:50:51.819Z,69.59
2023-12-09T16:53:27.491Z,69.41
2023-12-09T16:56:05.158Z,69.45
2023-12-09T16:58:35.548Z,69.67
2023-12-09T17:01:18.583Z,69.69
2023-12-09T17:03:49.595Z,69.52
2023-12-09T17:06:23.142Z,69.75
2023-12-09T17:08:59.883Z,69.58
2023-12-09T17:11:37.944Z,69.86
2023-12-09T17:14:08.819Z,69.85
2023-12-09T17:16:38.885Z,70.04
2023-12-09T17:19:18.871Z,69.79
2023-12-09T17:21:58.139Z,70.14
2023-12-09T17:24:32.975Z,70.04
2023-12-09T17:27:06.410Z,70.04
2023-12-09T17:29:37.063Z,70.03
2023-12-09T17:32:11.664Z,69.82
2023-12-09T17:34:42.713Z,70.03
2023-12-09T17:37:16.009Z,70.09
2023-12-09T17:39:46.434Z,69.95
2023-12-09T17:42:16.849Z,70.46
2023-12-09T17:44:47.610Z,70.66
2023-12-09T17:47:23.383Z,70.53
2023-12-09T17:49:55.059Z,70.04
2023-12-09T17:52:37.640Z,70.51
2023-12-09T17:55:10.214Z,70.93
2023-12-09T17:57:41.464Z,71.14
2023-12-09T18:00:13.027Z,71.02
2023-12-09T18:02:46.462Z,71.42
2023-12-09T18:05:21.517Z,71.61
2023-12-09T18:08:00.504Z,71.67
2023-12-09T18:10:31.972Z,71.84
2023-12-09T18:13:06.590Z,71.94
2023-12-09T18:15:45.582Z,72.01
2023-12-09T18:18:17.404Z,71.74
2023-12-09T18:20:52.976Z,71.84
2023-12-09T18:23:26.765Z,71.98
2023-12-09T18:26:01.106Z,72.41
2023-12-09T18:28:32.310Z,72.31
2023-12-09T18:31:16.020Z,72.29
2023-12-09T18:33:47.690Z,72.28
2023-12-09T18:36:19.371Z,72.34
2023-12-09T18:38:55.764Z,72.54
2023-12-09T18:41:32.572Z,72.47
2023-12-09T18:44:13.104Z,72.80
2023-12-09T18:46:54.004Z,72.52
2023-12-09T18:49:32.069Z,72.42
2023-12-09T18:52:19.231Z,72.68
2023-12-09T18:54:56.308Z,72.57
2023-12-09T18:57:26.713Z,72.42
2023-12-09T18:59:59.025Z,72.66
2023-12-09T19:02:33.927Z,72.68
2023-12-09T19:05:05.269Z,72.49
2023-12-09T19:07:39.653Z,72.74
2023-12-09T19:10:14.352Z,72.75
2023-12-09T19:12:49.832Z,72.54
2023-12-09T19:15:22.271Z,72.97
2023-12-09T19:17:52.698Z,72.61
2023-12-09T19:20:23.758Z,72.92
2023-12-09T19:22:55.276Z,73.05
2023-12-09T19:25:28.261Z,72.95
2023-12-09T19:28:00.406Z,72.84
2023-12-09T19:30:38.232Z,73.06
2023-12-09T19:33:09.007Z,73.19
2023-12-09T19:35:45.504Z,72.97
2023-12-09T19:38:18.632Z,72.73
2023-12-09T19:40:57.948Z,72.79
2023-12-09T19:43:36.716Z,73.02
2023-12-09T19:46:13.638Z,73.26
2023-12-09T19:48:44.761Z,73.02
2023-12-09T19:51:15.770Z,72.90
2023-12-09T19:53:46.433Z,73.04
2023-12-09T19:56:19.304Z,72.57
2023-12-09T19:58:49.976Z,72.76
2023-12-09T20:01:23.007Z,72.71
2023-12-09T20:03:53.962Z,72.69
2023-12-09T20:06:28.710Z,72.88
2023-12-09T20:09:01.964Z,73.04
2023-12-09T20:11:38.036Z,72.82
2023-12-09T20:14:09.198Z,72.89
2023-12-09T20:16:39.853Z,72.93
2023-12-09T20:19:10.912Z,73.19
2023-12-09T20:21:42.080Z,73.48
2023-12-09T20:24:13.162Z,73.26
2023-12-09T20:26:46.925Z,73.21
2023-12-09T20:29:18.246Z,73.01
2023-12-09T20:31:48.326Z,72.79
2023-12-09T20:34:23.445Z,73.15
2023-12-09T20:36:55.195Z,72.76
2023-12-09T20:39:29.369Z,73.14
2023-12-09T20:42:08.603Z,72.87
2023-12-09T20:44:39.492Z,72.87
2023-12-09T20:47:15.191Z,72.82
2023-12-09T20:49:53.376Z,72.46
2023-12-09T20:52:26.153Z,73.00
2023-12-09T20:54:56.916Z,73.09
2023-12-09T20:57:31.457Z,73.12
2023-12-09T21:00:06.915Z,72.66
2023-12-09T21:02:37.991Z,72.83
2023-12-09T21:05:09.060Z,72.07
2023-12-09T21:07:46.289Z,72.24
2023-12-09T21:10:20.134Z,72.07
2023-12-09T21:12:57.925Z,72.04
2023-12-09T21:15:29.823Z,71.78
2023-12-09T21:18:07.868Z,72.12
2023-12-09T21:20:39.922Z,71.46
2023-12-09T21:23:13.133Z,71.52
2023-12-09T21:25:43.597Z,71.21
2023-12-09T21:28:17.751Z,71.33
2023-12-09T21:30:53.476Z,71.06
2023-12-09T21:33:25.274Z,71.24
2023-12-09T21:35:58.831Z,71.35
2023-12-09T21:38:31.049Z,70.96
2023-12-09T21:41:01.919Z,71.17
2023-12-09T21:43:34.887Z,70.82
2023-12-09T21:46:05.884Z,70.95
2023-12-09T21:48:37.068Z,71.28
2023-12-09T21:51:07.677Z,71.39
2023-12-09T21:53:40.973Z,71.08
2023-12-09T21:56:22.455Z,70.90
2023-12-09T21:58:56.505Z,71.14
2023-12-09T22:01:27.726Z,71.19
2023-12-09T22:03:58.707Z,71.30
2023-12-09T22:06:35.585Z,70.92
2023-12-09T22:09:07.552Z,71.16
2023-12-09T22:11:40.620Z,70.92
2023-12-09T22:14:14.053Z,71.29
2023-12-09T22:16:45.235Z,71.04
2023-12-09T22:19:20.079Z,71.63
2023-12-09T22:21:51.176Z,71.70
2023-12-09T22:24:24.391Z,72.26
2023-12-09T22:26:56.149Z,72.10
2023-12-09T22:29:33.486Z,72.23
2023-12-09T22:32:04.336Z,72.04
2023-12-09T22:34:36.278Z,71.87
2023-12-09T22:37:06.912Z,71.89
2023-12-09T22:39:39.932Z,72.05
2023-12-09T22:42:11.469Z,72.14
2023-12-09T22:44:48.720Z,72.16
2023-12-09T22:47:25.518Z,72.37
2023-12-09T22:49:56.421Z,72.03
2023-12-09T22:52:27.174Z,72.21
2023-12-09T22:54:58.232Z,72.43
2023-12-09T22:57:29.964Z,72.50
2023-12-09T23:00:05.099Z,72.87
2023-12-09T23:02:36.028Z,72.79
2023-12-09T23:05:06.783Z,73.16
2023-12-09T23:07:37.674Z,72.74
2023-12-09T23:10:09.535Z,72.78
2023-12-09T23:12:40.449Z,72.83
2023-12-09T23:15:14.386Z,73.05
2023-12-09T23:17:47.807Z,72.99
2023-12-09T23:20:19.529Z,72.54
2023-12-09T23:22:50.724Z,72.80
2023-12-09T23:25:23.271Z,73.08
2023-12-09T23:27:54.167Z,72.99
2023-12-09T23:30:31.737Z,73.45
2023-12-09T23:33:03.946Z,73.18
2023-12-09T23:35:34.835Z,73.54
2023-12-09T23:38:11.262Z,73.65
2023-12-09T23:40:42.178Z,74.29
2023-12-09T23:43:14.720Z,74.20
2023-12-09T23:45:48.235Z,73.97
2023-12-09T23:48:19.536Z,73.84
2023-12-09T23:50:50.882Z,73.84
2023-12-09T23:53:22.241Z,74.13
2023-12-09T23:55:52.275Z,73.77
2023-12-09T23:58:22.747Z,73.78
